KCSG

Columbus Airport

Columbus, Georgia, USA
KCSG 181739Z 1818/1918 28004KT P6SM BKN035 TEMPO 1818/1822 4SM TSRA OVC035CB FM190200 VRB03KT P6SM BKN050 BKN150 FM191200 00000KT P6SM SCT250 FM191600 12005KT P6SM VCSH BKN030
Issued Valid From Valid To
Jul-18 @ 17:39 UTC
(5 hours ago)
Jul-18 @ 18:00 UTC
(4 hours ago)
Jul-19 @ 18:00 UTC
(in 20 hours)
Jul-18 @ 18:00 to Jul-19 @ 02:00
KCSG 181739Z 1818/1918 28004KT P6SM BKN035
Wind Visibility Clouds
280° at 4 knots Greater than 6 miles
  • Broken at 3,500' AGL
Expired Click to View Jul-18 @ 18:00 to Jul-18 @ 22:00
TEMPO 1818/1822 4SM TSRA OVC035CB
Visibility Clouds Conditions
4 miles
  • Overcast at 3,500' AGL
  • Thunderstorm
  • Rain
From Jul-19 @ 02:00 to Jul-19 @ 12:00
FM190200 VRB03KT P6SM BKN050 BKN150
Wind Visibility Clouds
Variable at 3 knots Greater than 6 miles
  • Broken at 5,000' AGL
  • Broken at 15,000' AGL
From Jul-19 @ 12:00 to Jul-19 @ 16:00
FM191200 00000KT P6SM SCT250
Visibility Clouds
Greater than 6 miles
  • Scattered at 25,000' AGL
From Jul-19 @ 16:00 to Jul-19 @ 18:00
FM191600 12005KT P6SM VCSH BKN030
Wind Visibility Clouds
120° at 5 knots Greater than 6 miles
  • Broken at 3,000' AGL
KCSG 181739Z 1818/1918 28004KT P6SM BKN035 TEMPO 1818/1822 4SM TSRA OVC035CB FM190200 VRB03KT P6SM BKN050 BKN150 FM191200 00000KT P6SM SCT250 FM191600 12005KT P6SM VCSH BKN030
Issued Jul-18 @ 17:39 UTC
(5 hours ago)
Valid From Jul-18 @ 18:00 UTC
(4 hours ago)
Valid To Jul-19 @ 18:00 UTC
(in 20 hours)
Jul-18 @ 18:00 - Jul-19 @ 02:00
Wind Visibility
280° at 4 knots Greater than 6 miles
Clouds
  • Broken at 3,500' AGL
Jul-18 @ 18:00 - Jul-18 @ 22:00
Clouds
  • Overcast at 3,500' AGL
Conditions
  • Thunderstorm
  • Rain
From Jul-19 @ 02:00 - Jul-19 @ 12:00
Wind Visibility
Variable at 3 knots Greater than 6 miles
Clouds
  • Broken at 5,000' AGL
  • Broken at 15,000' AGL
From Jul-19 @ 12:00 - Jul-19 @ 16:00
Clouds
  • Scattered at 25,000' AGL
From Jul-19 @ 16:00 - Jul-19 @ 18:00
Wind Visibility
120° at 5 knots Greater than 6 miles
Clouds
  • Broken at 3,000' AGL